sensor_id;sensor_type;location;lat;lon;timestamp;temperature;humidity
33741;DHT22;20065;48.380;10.892;2022-08-01T00:02:10;21.40;99.90
33741;DHT22;20065;48.380;10.892;2022-08-01T00:04:57;21.50;99.90
33741;DHT22;20065;48.380;10.892;2022-08-01T00:07:43;21.40;99.90
33741;DHT22;20065;48.380;10.892;2022-08-01T00:10:29;21.30;99.90
33741;DHT22;20065;48.380;10.892;2022-08-01T00:13:15;21.20;99.90
33741;DHT22;20065;48.380;10.892;2022-08-01T00:16:01;21.40;99.90
33741;DHT22;20065;48.380;10.892;2022-08-01T00:18:47;21.20;99.90
33741;DHT22;20065;48.380;10.892;2022-08-01T00:21:33;21.10;99.90
33741;DHT22;20065;48.380;10.892;2022-08-01T00:24:19;21.00;99.90
33741;DHT22;20065;48.380;10.892;2022-08-01T00:27:05;21.10;99.90
33741;DHT22;20065;48.380;10.892;2022-08-01T00:29:51;21.00;99.90
33741;DHT22;20065;48.380;10.892;2022-08-01T00:32:37;21.00;99.90
33741;DHT22;20065;48.380;10.892;2022-08-01T00:35:23;21.00;99.90
33741;DHT22;20065;48.380;10.892;2022-08-01T00:38:09;21.00;99.90
33741;DHT22;20065;48.380;10.892;2022-08-01T00:40:56;21.00;99.90
33741;DHT22;20065;48.380;10.892;2022-08-01T00:43:42;20.80;99.90
33741;DHT22;20065;48.380;10.892;2022-08-01T00:46:28;20.80;99.90
33741;DHT22;20065;48.380;10.892;2022-08-01T00:49:14;20.70;99.90
33741;DHT22;20065;48.380;10.892;2022-08-01T00:52:00;20.90;99.90
33741;DHT22;20065;48.380;10.892;2022-08-01T00:54:48;20.80;99.90
33741;DHT22;20065;48.380;10.892;2022-08-01T00:57:34;20.70;99.90
33741;DHT22;20065;48.380;10.892;2022-08-01T01:00:20;20.80;99.90
33741;DHT22;20065;48.380;10.892;2022-08-01T01:03:06;20.70;99.90
33741;DHT22;20065;48.380;10.892;2022-08-01T01:09:44;20.50;99.90
33741;DHT22;20065;48.380;10.892;2022-08-01T01:15:46;20.30;99.90
33741;DHT22;20065;48.380;10.892;2022-08-01T01:18:37;20.30;99.90
33741;DHT22;20065;48.380;10.892;2022-08-01T01:21:28;20.20;99.90
33741;DHT22;20065;48.380;10.892;2022-08-01T01:24:40;20.20;99.90
33741;DHT22;20065;48.380;10.892;2022-08-01T01:27:45;20.20;99.90
33741;DHT22;20065;48.380;10.892;2022-08-01T01:30:34;20.20;99.90
33741;DHT22;20065;48.380;10.892;2022-08-01T01:33:22;20.40;99.90
33741;DHT22;20065;48.380;10.892;2022-08-01T01:36:10;20.30;99.90
33741;DHT22;20065;48.380;10.892;2022-08-01T01:38:57;20.30;99.90
33741;DHT22;20065;48.380;10.892;2022-08-01T01:41:45;20.40;99.90
33741;DHT22;20065;48.380;10.892;2022-08-01T01:44:32;20.20;99.90
33741;DHT22;20065;48.380;10.892;2022-08-01T01:47:20;20.00;99.90
33741;DHT22;20065;48.380;10.892;2022-08-01T01:50:08;19.90;99.90
33741;DHT22;20065;48.380;10.892;2022-08-01T01:52:57;19.80;99.90
33741;DHT22;20065;48.380;10.892;2022-08-01T01:55:46;19.80;99.90
33741;DHT22;20065;48.380;10.892;2022-08-01T01:58:34;19.70;99.90
33741;DHT22;20065;48.380;10.892;2022-08-01T02:01:22;19.70;99.90
33741;DHT22;20065;48.380;10.892;2022-08-01T02:04:09;19.80;99.90
33741;DHT22;20065;48.380;10.892;2022-08-01T02:06:56;19.90;99.90
33741;DHT22;20065;48.380;10.892;2022-08-01T02:09:43;19.80;99.90
33741;DHT22;20065;48.380;10.892;2022-08-01T02:12:37;19.80;99.90
33741;DHT22;20065;48.380;10.892;2022-08-01T02:15:24;19.80;99.90
33741;DHT22;20065;48.380;10.892;2022-08-01T02:18:10;19.90;99.90
33741;DHT22;20065;48.380;10.892;2022-08-01T02:20:59;19.90;99.90
33741;DHT22;20065;48.380;10.892;2022-08-01T02:23:47;19.90;99.90
33741;DHT22;20065;48.380;10.892;2022-08-01T02:26:34;19.90;99.90
33741;DHT22;20065;48.380;10.892;2022-08-01T02:29:29;19.80;99.90
33741;DHT22;20065;48.380;10.892;2022-08-01T02:32:23;19.90;99.90
33741;DHT22;20065;48.380;10.892;2022-08-01T02:35:14;19.80;99.90
33741;DHT22;20065;48.380;10.892;2022-08-01T02:38:05;20.00;99.90
33741;DHT22;20065;48.380;10.892;2022-08-01T02:40:52;19.90;99.90
33741;DHT22;20065;48.380;10.892;2022-08-01T02:43:45;19.90;99.90
33741;DHT22;20065;48.380;10.892;2022-08-01T02:46:39;20.00;99.90
33741;DHT22;20065;48.380;10.892;2022-08-01T02:49:25;20.00;99.90
33741;DHT22;20065;48.380;10.892;2022-08-01T02:52:15;20.00;99.90
33741;DHT22;20065;48.380;10.892;2022-08-01T02:55:02;19.90;99.90
33741;DHT22;20065;48.380;10.892;2022-08-01T02:57:52;19.90;99.90
33741;DHT22;20065;48.380;10.892;2022-08-01T03:00:40;19.90;99.90
33741;DHT22;20065;48.380;10.892;2022-08-01T03:03:26;20.00;99.90
33741;DHT22;20065;48.380;10.892;2022-08-01T03:06:13;20.00;99.90
33741;DHT22;20065;48.380;10.892;2022-08-01T03:09:02;20.00;99.90
33741;DHT22;20065;48.380;10.892;2022-08-01T03:11:49;19.90;99.90
33741;DHT22;20065;48.380;10.892;2022-08-01T03:14:36;20.00;99.90
33741;DHT22;20065;48.380;10.892;2022-08-01T03:17:25;20.00;99.90
33741;DHT22;20065;48.380;10.892;2022-08-01T03:20:13;19.90;99.90
33741;DHT22;20065;48.380;10.892;2022-08-01T03:23:06;19.90;99.90
33741;DHT22;20065;48.380;10.892;2022-08-01T03:25:53;19.80;99.90
33741;DHT22;20065;48.380;10.892;2022-08-01T03:28:40;20.00;99.90
33741;DHT22;20065;48.380;10.892;2022-08-01T03:31:27;19.90;99.90
33741;DHT22;20065;48.380;10.892;2022-08-01T03:34:14;19.90;99.90
33741;DHT22;20065;48.380;10.892;2022-08-01T03:40:09;19.90;99.90
33741;DHT22;20065;48.380;10.892;2022-08-01T03:43:01;19.70;99.90
33741;DHT22;20065;48.380;10.892;2022-08-01T03:45:51;19.80;99.90
33741;DHT22;20065;48.380;10.892;2022-08-01T03:48:40;19.80;99.90
33741;DHT22;20065;48.380;10.892;2022-08-01T03:51:29;19.60;99.90
33741;DHT22;20065;48.380;10.892;2022-08-01T03:54:20;19.60;99.90
33741;DHT22;20065;48.380;10.892;2022-08-01T03:57:07;19.50;99.90
33741;DHT22;20065;48.380;10.892;2022-08-01T03:59:56;19.60;99.90
33741;DHT22;20065;48.380;10.892;2022-08-01T04:02:42;19.40;99.90
33741;DHT22;20065;48.380;10.892;2022-08-01T04:05:29;19.40;99.90
33741;DHT22;20065;48.380;10.892;2022-08-01T04:08:15;19.40;99.90
33741;DHT22;20065;48.380;10.892;2022-08-01T04:11:01;19.40;99.90
33741;DHT22;20065;48.380;10.892;2022-08-01T04:13:47;19.40;99.90
33741;DHT22;20065;48.380;10.892;2022-08-01T04:16:33;19.40;99.90
33741;DHT22;20065;48.380;10.892;2022-08-01T04:19:20;19.50;99.90
33741;DHT22;20065;48.380;10.892;2022-08-01T04:22:06;19.60;99.90
33741;DHT22;20065;48.380;10.892;2022-08-01T04:24:56;19.50;99.90
33741;DHT22;20065;48.380;10.892;2022-08-01T04:27:46;19.50;99.90
33741;DHT22;20065;48.380;10.892;2022-08-01T04:30:34;19.50;99.90
33741;DHT22;20065;48.380;10.892;2022-08-01T04:33:22;19.50;99.90
33741;DHT22;20065;48.380;10.892;2022-08-01T04:36:10;19.40;99.90
33741;DHT22;20065;48.380;10.892;2022-08-01T04:38:59;19.40;99.90
33741;DHT22;20065;48.380;10.892;2022-08-01T04:41:47;19.40;99.90
33741;DHT22;20065;48.380;10.892;2022-08-01T04:44:33;19.30;99.90
33741;DHT22;20065;48.380;10.892;2022-08-01T04:47:20;19.40;99.90
33741;DHT22;20065;48.380;10.892;2022-08-01T04:50:07;19.50;99.90
33741;DHT22;20065;48.380;10.892;2022-08-01T04:52:54;19.50;99.90
33741;DHT22;20065;48.380;10.892;2022-08-01T04:55:40;19.60;99.90
33741;DHT22;20065;48.380;10.892;2022-08-01T04:58:26;19.50;99.90
33741;DHT22;20065;48.380;10.892;2022-08-01T05:01:12;19.50;99.90
33741;DHT22;20065;48.380;10.892;2022-08-01T05:03:58;19.60;99.90
33741;DHT22;20065;48.380;10.892;2022-08-01T05:06:44;19.70;99.90
33741;DHT22;20065;48.380;10.892;2022-08-01T05:09:31;19.60;99.90
33741;DHT22;20065;48.380;10.892;2022-08-01T05:12:17;19.80;99.90
33741;DHT22;20065;48.380;10.892;2022-08-01T05:15:03;19.60;99.90
33741;DHT22;20065;48.380;10.892;2022-08-01T05:17:49;19.50;99.90
33741;DHT22;20065;48.380;10.892;2022-08-01T05:20:36;19.70;99.90
33741;DHT22;20065;48.380;10.892;2022-08-01T05:23:22;19.70;99.90
33741;DHT22;20065;48.380;10.892;2022-08-01T05:26:11;19.70;99.90
33741;DHT22;20065;48.380;10.892;2022-08-01T05:29:00;19.70;99.90
33741;DHT22;20065;48.380;10.892;2022-08-01T05:31:46;19.90;99.90
33741;DHT22;20065;48.380;10.892;2022-08-01T05:34:32;20.10;99.90
33741;DHT22;20065;48.380;10.892;2022-08-01T05:37:18;20.00;99.90
33741;DHT22;20065;48.380;10.892;2022-08-01T05:40:04;20.00;99.90
33741;DHT22;20065;48.380;10.892;2022-08-01T05:42:51;20.00;99.90
33741;DHT22;20065;48.380;10.892;2022-08-01T05:45:37;20.00;99.90
33741;DHT22;20065;48.380;10.892;2022-08-01T05:48:23;20.20;99.90
33741;DHT22;20065;48.380;10.892;2022-08-01T05:51:09;20.00;99.90
33741;DHT22;20065;48.380;10.892;2022-08-01T05:53:55;20.00;99.90
33741;DHT22;20065;48.380;10.892;2022-08-01T05:56:41;20.20;99.90
33741;DHT22;20065;48.380;10.892;2022-08-01T05:59:28;20.20;99.90
33741;DHT22;20065;48.380;10.892;2022-08-01T06:02:14;20.20;99.90
33741;DHT22;20065;48.380;10.892;2022-08-01T06:05:00;20.10;99.90
33741;DHT22;20065;48.380;10.892;2022-08-01T06:07:47;20.30;99.90
33741;DHT22;20065;48.380;10.892;2022-08-01T06:10:33;20.40;99.90
33741;DHT22;20065;48.380;10.892;2022-08-01T06:13:19;20.40;99.90
33741;DHT22;20065;48.380;10.892;2022-08-01T06:16:05;20.60;99.90
33741;DHT22;20065;48.380;10.892;2022-08-01T06:18:51;20.80;99.90
33741;DHT22;20065;48.380;10.892;2022-08-01T06:21:37;20.70;99.90
33741;DHT22;20065;48.380;10.892;2022-08-01T06:24:24;20.60;99.90
33741;DHT22;20065;48.380;10.892;2022-08-01T06:27:10;20.70;99.90
33741;DHT22;20065;48.380;10.892;2022-08-01T06:29:56;20.60;99.90
33741;DHT22;20065;48.380;10.892;2022-08-01T06:32:42;20.70;99.90
33741;DHT22;20065;48.380;10.892;2022-08-01T06:35:29;20.60;99.90
33741;DHT22;20065;48.380;10.892;2022-08-01T06:38:15;21.00;99.90
33741;DHT22;20065;48.380;10.892;2022-08-01T06:41:01;20.80;99.90
33741;DHT22;20065;48.380;10.892;2022-08-01T06:43:48;20.90;99.90
33741;DHT22;20065;48.380;10.892;2022-08-01T06:46:34;21.30;99.90
33741;DHT22;20065;48.380;10.892;2022-08-01T06:49:20;21.20;99.90
33741;DHT22;20065;48.380;10.892;2022-08-01T06:52:06;21.40;99.90
33741;DHT22;20065;48.380;10.892;2022-08-01T06:54:52;21.30;99.90
33741;DHT22;20065;48.380;10.892;2022-08-01T06:57:51;21.40;99.90
33741;DHT22;20065;48.380;10.892;2022-08-01T07:00:38;21.60;99.90
33741;DHT22;20065;48.380;10.892;2022-08-01T07:03:24;21.40;99.90
33741;DHT22;20065;48.380;10.892;2022-08-01T07:06:10;21.60;99.90
33741;DHT22;20065;48.380;10.892;2022-08-01T07:08:56;21.60;99.90
33741;DHT22;20065;48.380;10.892;2022-08-01T07:11:42;21.70;99.90
33741;DHT22;20065;48.380;10.892;2022-08-01T07:14:28;21.50;99.90
33741;DHT22;20065;48.380;10.892;2022-08-01T07:17:14;21.60;99.90
33741;DHT22;20065;48.380;10.892;2022-08-01T07:20:01;21.60;99.90
33741;DHT22;20065;48.380;10.892;2022-08-01T07:22:47;21.60;99.90
33741;DHT22;20065;48.380;10.892;2022-08-01T07:25:33;21.60;99.90
33741;DHT22;20065;48.380;10.892;2022-08-01T07:28:19;21.50;99.90
33741;DHT22;20065;48.380;10.892;2022-08-01T07:31:05;21.40;99.90
33741;DHT22;20065;48.380;10.892;2022-08-01T07:33:51;21.50;99.90
33741;DHT22;20065;48.380;10.892;2022-08-01T07:36:37;21.70;99.90
33741;DHT22;20065;48.380;10.892;2022-08-01T07:39:23;21.80;99.90
33741;DHT22;20065;48.380;10.892;2022-08-01T07:42:09;21.80;99.90
33741;DHT22;20065;48.380;10.892;2022-08-01T07:44:55;21.70;99.90
33741;DHT22;20065;48.380;10.892;2022-08-01T07:47:41;21.80;99.90
33741;DHT22;20065;48.380;10.892;2022-08-01T07:50:28;21.80;99.90
33741;DHT22;20065;48.380;10.892;2022-08-01T07:53:14;22.00;99.90
33741;DHT22;20065;48.380;10.892;2022-08-01T07:55:59;22.00;99.90
33741;DHT22;20065;48.380;10.892;2022-08-01T07:58:48;22.10;99.90
33741;DHT22;20065;48.380;10.892;2022-08-01T08:01:34;22.20;99.90
33741;DHT22;20065;48.380;10.892;2022-08-01T08:04:20;22.30;99.90
33741;DHT22;20065;48.380;10.892;2022-08-01T08:07:06;22.40;99.90
33741;DHT22;20065;48.380;10.892;2022-08-01T08:09:52;22.40;99.90
33741;DHT22;20065;48.380;10.892;2022-08-01T08:12:38;22.40;99.90
33741;DHT22;20065;48.380;10.892;2022-08-01T08:15:24;22.50;99.90
33741;DHT22;20065;48.380;10.892;2022-08-01T08:18:10;22.70;99.90
33741;DHT22;20065;48.380;10.892;2022-08-01T08:20:56;22.60;99.90
33741;DHT22;20065;48.380;10.892;2022-08-01T08:23:42;22.80;99.90
33741;DHT22;20065;48.380;10.892;2022-08-01T08:26:56;22.80;99.90
33741;DHT22;20065;48.380;10.892;2022-08-01T08:29:42;22.80;99.90
33741;DHT22;20065;48.380;10.892;2022-08-01T08:32:28;23.00;99.90
33741;DHT22;20065;48.380;10.892;2022-08-01T08:35:14;22.90;99.90
33741;DHT22;20065;48.380;10.892;2022-08-01T08:38:00;23.10;99.90
33741;DHT22;20065;48.380;10.892;2022-08-01T08:40:46;23.20;99.90
33741;DHT22;20065;48.380;10.892;2022-08-01T08:43:32;23.40;99.90
33741;DHT22;20065;48.380;10.892;2022-08-01T08:46:19;23.50;99.90
33741;DHT22;20065;48.380;10.892;2022-08-01T08:49:06;23.70;99.90
33741;DHT22;20065;48.380;10.892;2022-08-01T08:51:53;23.70;99.90
33741;DHT22;20065;48.380;10.892;2022-08-01T08:54:44;23.70;99.90
33741;DHT22;20065;48.380;10.892;2022-08-01T08:57:31;23.70;99.90
33741;DHT22;20065;48.380;10.892;2022-08-01T09:00:17;23.70;99.90
33741;DHT22;20065;48.380;10.892;2022-08-01T09:03:03;24.00;99.90
33741;DHT22;20065;48.380;10.892;2022-08-01T09:05:49;24.00;99.90
33741;DHT22;20065;48.380;10.892;2022-08-01T09:08:35;24.10;99.90
33741;DHT22;20065;48.380;10.892;2022-08-01T09:11:21;24.20;99.90
33741;DHT22;20065;48.380;10.892;2022-08-01T09:14:16;24.20;99.90
33741;DHT22;20065;48.380;10.892;2022-08-01T09:17:15;24.10;99.90
33741;DHT22;20065;48.380;10.892;2022-08-01T09:20:02;24.20;99.90
33741;DHT22;20065;48.380;10.892;2022-08-01T09:22:48;24.60;99.90
33741;DHT22;20065;48.380;10.892;2022-08-01T09:25:50;24.50;99.90
33741;DHT22;20065;48.380;10.892;2022-08-01T09:28:40;24.70;99.90
33741;DHT22;20065;48.380;10.892;2022-08-01T09:31:27;24.50;99.90
33741;DHT22;20065;48.380;10.892;2022-08-01T09:34:15;24.90;99.90
33741;DHT22;20065;48.380;10.892;2022-08-01T09:37:02;25.00;99.90
33741;DHT22;20065;48.380;10.892;2022-08-01T09:39:54;25.20;99.90
33741;DHT22;20065;48.380;10.892;2022-08-01T09:42:40;25.70;99.90
33741;DHT22;20065;48.380;10.892;2022-08-01T09:45:33;25.50;99.90
33741;DHT22;20065;48.380;10.892;2022-08-01T09:48:20;25.80;99.90
33741;DHT22;20065;48.380;10.892;2022-08-01T09:51:07;27.00;99.90
33741;DHT22;20065;48.380;10.892;2022-08-01T09:53:53;27.00;99.90
33741;DHT22;20065;48.380;10.892;2022-08-01T09:56:42;26.30;99.90
33741;DHT22;20065;48.380;10.892;2022-08-01T09:59:39;25.90;99.90
33741;DHT22;20065;48.380;10.892;2022-08-01T10:02:33;26.10;99.90
33741;DHT22;20065;48.380;10.892;2022-08-01T10:05:33;26.90;99.90
33741;DHT22;20065;48.380;10.892;2022-08-01T10:08:19;25.80;99.90
33741;DHT22;20065;48.380;10.892;2022-08-01T10:11:09;25.40;99.90
33741;DHT22;20065;48.380;10.892;2022-08-01T10:13:56;26.00;99.90
33741;DHT22;20065;48.380;10.892;2022-08-01T10:16:45;26.00;99.90
33741;DHT22;20065;48.380;10.892;2022-08-01T10:19:32;26.30;99.90
33741;DHT22;20065;48.380;10.892;2022-08-01T10:22:18;26.80;99.90
33741;DHT22;20065;48.380;10.892;2022-08-01T10:25:05;26.10;99.90
33741;DHT22;20065;48.380;10.892;2022-08-01T10:27:53;26.20;99.80
33741;DHT22;20065;48.380;10.892;2022-08-01T10:30:43;25.80;99.90
33741;DHT22;20065;48.380;10.892;2022-08-01T10:33:30;26.90;99.90
33741;DHT22;20065;48.380;10.892;2022-08-01T10:36:19;27.90;99.10
33741;DHT22;20065;48.380;10.892;2022-08-01T10:39:06;27.80;98.90
33741;DHT22;20065;48.380;10.892;2022-08-01T10:41:53;28.20;97.90
33741;DHT22;20065;48.380;10.892;2022-08-01T10:44:40;27.30;99.30
33741;DHT22;20065;48.380;10.892;2022-08-01T10:47:48;28.20;98.20
33741;DHT22;20065;48.380;10.892;2022-08-01T10:50:42;28.20;98.30
33741;DHT22;20065;48.380;10.892;2022-08-01T10:53:30;28.60;97.30
33741;DHT22;20065;48.380;10.892;2022-08-01T10:56:16;28.00;97.70
33741;DHT22;20065;48.380;10.892;2022-08-01T10:59:03;27.70;98.10
33741;DHT22;20065;48.380;10.892;2022-08-01T11:02:03;27.70;97.60
33741;DHT22;20065;48.380;10.892;2022-08-01T11:04:55;27.50;97.40
33741;DHT22;20065;48.380;10.892;2022-08-01T11:07:48;27.70;97.50
33741;DHT22;20065;48.380;10.892;2022-08-01T11:10:39;27.30;97.80
33741;DHT22;20065;48.380;10.892;2022-08-01T11:16:44;26.70;98.70
33741;DHT22;20065;48.380;10.892;2022-08-01T11:20:09;26.30;98.60
33741;DHT22;20065;48.380;10.892;2022-08-01T11:28:34;25.80;99.70
33741;DHT22;20065;48.380;10.892;2022-08-01T11:34:06;26.30;99.90
33741;DHT22;20065;48.380;10.892;2022-08-01T11:37:23;26.30;99.90
33741;DHT22;20065;48.380;10.892;2022-08-01T11:40:29;26.30;99.90
33741;DHT22;20065;48.380;10.892;2022-08-01T11:43:16;26.50;99.90
33741;DHT22;20065;48.380;10.892;2022-08-01T11:46:03;26.40;99.90
33741;DHT22;20065;48.380;10.892;2022-08-01T11:49:33;26.40;99.90
33741;DHT22;20065;48.380;10.892;2022-08-01T11:52:31;26.60;99.90
33741;DHT22;20065;48.380;10.892;2022-08-01T11:55:21;26.50;99.90
33741;DHT22;20065;48.380;10.892;2022-08-01T11:58:07;25.70;99.90
33741;DHT22;20065;48.380;10.892;2022-08-01T12:00:55;25.70;99.90
33741;DHT22;20065;48.380;10.892;2022-08-01T12:03:42;26.30;99.90
33741;DHT22;20065;48.380;10.892;2022-08-01T12:06:28;26.00;99.90
33741;DHT22;20065;48.380;10.892;2022-08-01T12:09:19;25.90;99.90
33741;DHT22;20065;48.380;10.892;2022-08-01T12:12:06;25.80;99.90
33741;DHT22;20065;48.380;10.892;2022-08-01T12:14:57;25.90;99.90
33741;DHT22;20065;48.380;10.892;2022-08-01T12:17:47;26.00;99.90
33741;DHT22;20065;48.380;10.892;2022-08-01T12:20:37;26.20;99.90
33741;DHT22;20065;48.380;10.892;2022-08-01T12:23:24;26.00;99.90
33741;DHT22;20065;48.380;10.892;2022-08-01T12:26:10;26.30;99.90
33741;DHT22;20065;48.380;10.892;2022-08-01T12:28:58;27.40;99.90
33741;DHT22;20065;48.380;10.892;2022-08-01T12:31:44;28.30;99.80
33741;DHT22;20065;48.380;10.892;2022-08-01T12:34:31;27.20;98.80
33741;DHT22;20065;48.380;10.892;2022-08-01T12:37:20;26.80;99.90
33741;DHT22;20065;48.380;10.892;2022-08-01T12:40:23;26.80;99.60
33741;DHT22;20065;48.380;10.892;2022-08-01T12:43:13;25.90;99.90
33741;DHT22;20065;48.380;10.892;2022-08-01T12:46:01;25.80;99.90
33741;DHT22;20065;48.380;10.892;2022-08-01T12:48:47;25.70;99.90
33741;DHT22;20065;48.380;10.892;2022-08-01T12:51:34;25.70;99.90
33741;DHT22;20065;48.380;10.892;2022-08-01T12:54:20;25.90;99.90
33741;DHT22;20065;48.380;10.892;2022-08-01T12:57:25;27.90;99.90
33741;DHT22;20065;48.380;10.892;2022-08-01T13:00:20;28.20;98.50
33741;DHT22;20065;48.380;10.892;2022-08-01T13:03:11;29.00;97.30
33741;DHT22;20065;48.380;10.892;2022-08-01T13:05:58;27.80;98.50
33741;DHT22;20065;48.380;10.892;2022-08-01T13:08:45;29.30;98.30
33741;DHT22;20065;48.380;10.892;2022-08-01T13:11:31;29.90;96.10
33741;DHT22;20065;48.380;10.892;2022-08-01T13:14:28;28.50;97.10
33741;DHT22;20065;48.380;10.892;2022-08-01T13:17:30;29.80;97.10
33741;DHT22;20065;48.380;10.892;2022-08-01T13:20:24;31.20;93.70
33741;DHT22;20065;48.380;10.892;2022-08-01T13:23:18;28.30;96.80
33741;DHT22;20065;48.380;10.892;2022-08-01T13:26:05;27.40;97.00
33741;DHT22;20065;48.380;10.892;2022-08-01T13:29:05;27.50;97.50
33741;DHT22;20065;48.380;10.892;2022-08-01T13:31:52;26.70;97.90
33741;DHT22;20065;48.380;10.892;2022-08-01T13:34:39;26.70;98.30
33741;DHT22;20065;48.380;10.892;2022-08-01T13:37:25;27.00;98.30
33741;DHT22;20065;48.380;10.892;2022-08-01T13:40:11;27.10;97.60
33741;DHT22;20065;48.380;10.892;2022-08-01T13:42:57;26.90;99.90
33741;DHT22;20065;48.380;10.892;2022-08-01T13:45:43;26.00;99.90
33741;DHT22;20065;48.380;10.892;2022-08-01T13:48:30;23.60;99.90
33741;DHT22;20065;48.380;10.892;2022-08-01T13:51:16;22.20;99.90
33741;DHT22;20065;48.380;10.892;2022-08-01T13:54:02;21.50;99.90
33741;DHT22;20065;48.380;10.892;2022-08-01T13:56:49;20.10;99.90
33741;DHT22;20065;48.380;10.892;2022-08-01T13:59:35;18.40;99.90
33741;DHT22;20065;48.380;10.892;2022-08-01T14:02:21;19.00;99.90
33741;DHT22;20065;48.380;10.892;2022-08-01T14:05:07;18.70;99.90
33741;DHT22;20065;48.380;10.892;2022-08-01T14:07:53;18.10;99.90
33741;DHT22;20065;48.380;10.892;2022-08-01T14:10:39;18.10;99.90
33741;DHT22;20065;48.380;10.892;2022-08-01T14:13:26;17.90;99.90
33741;DHT22;20065;48.380;10.892;2022-08-01T14:16:12;18.20;99.90
33741;DHT22;20065;48.380;10.892;2022-08-01T14:19:01;18.60;99.90
33741;DHT22;20065;48.380;10.892;2022-08-01T14:21:48;18.30;99.90
33741;DHT22;20065;48.380;10.892;2022-08-01T14:24:34;18.60;99.90
33741;DHT22;20065;48.380;10.892;2022-08-01T14:27:20;18.50;99.90
33741;DHT22;20065;48.380;10.892;2022-08-01T14:30:09;18.50;99.90
33741;DHT22;20065;48.380;10.892;2022-08-01T14:32:56;18.40;99.90
33741;DHT22;20065;48.380;10.892;2022-08-01T14:35:42;18.70;99.90
33741;DHT22;20065;48.380;10.892;2022-08-01T14:38:28;18.70;99.90
33741;DHT22;20065;48.380;10.892;2022-08-01T14:41:15;18.80;99.90
33741;DHT22;20065;48.380;10.892;2022-08-01T14:44:01;19.20;99.90
33741;DHT22;20065;48.380;10.892;2022-08-01T14:46:47;19.20;99.90
33741;DHT22;20065;48.380;10.892;2022-08-01T14:49:34;19.30;99.90
33741;DHT22;20065;48.380;10.892;2022-08-01T14:52:19;19.50;99.90
33741;DHT22;20065;48.380;10.892;2022-08-01T14:55:07;19.60;99.90
33741;DHT22;20065;48.380;10.892;2022-08-01T14:57:54;19.70;99.90
33741;DHT22;20065;48.380;10.892;2022-08-01T15:00:40;20.00;99.90
33741;DHT22;20065;48.380;10.892;2022-08-01T15:03:26;20.00;99.90
33741;DHT22;20065;48.380;10.892;2022-08-01T15:06:12;19.90;99.90
33741;DHT22;20065;48.380;10.892;2022-08-01T15:08:58;20.00;99.90
33741;DHT22;20065;48.380;10.892;2022-08-01T15:11:44;20.00;99.90
33741;DHT22;20065;48.380;10.892;2022-08-01T15:14:32;20.10;99.90
33741;DHT22;20065;48.380;10.892;2022-08-01T15:17:33;19.90;99.90
33741;DHT22;20065;48.380;10.892;2022-08-01T15:20:19;19.80;99.90
33741;DHT22;20065;48.380;10.892;2022-08-01T15:23:06;19.90;99.90
33741;DHT22;20065;48.380;10.892;2022-08-01T15:25:52;20.20;99.90
33741;DHT22;20065;48.380;10.892;2022-08-01T15:28:38;20.30;99.90
33741;DHT22;20065;48.380;10.892;2022-08-01T15:31:24;20.40;99.90
33741;DHT22;20065;48.380;10.892;2022-08-01T15:34:10;20.50;99.90
33741;DHT22;20065;48.380;10.892;2022-08-01T15:36:56;20.50;99.90
33741;DHT22;20065;48.380;10.892;2022-08-01T15:39:42;20.20;99.90
33741;DHT22;20065;48.380;10.892;2022-08-01T15:42:29;20.20;99.90
33741;DHT22;20065;48.380;10.892;2022-08-01T15:45:15;20.40;99.90
33741;DHT22;20065;48.380;10.892;2022-08-01T15:48:04;20.60;99.90
33741;DHT22;20065;48.380;10.892;2022-08-01T15:50:50;20.50;99.90
33741;DHT22;20065;48.380;10.892;2022-08-01T15:53:36;20.10;99.90
33741;DHT22;20065;48.380;10.892;2022-08-01T15:56:22;20.20;99.90
33741;DHT22;20065;48.380;10.892;2022-08-01T15:59:10;20.30;99.90
33741;DHT22;20065;48.380;10.892;2022-08-01T16:01:56;20.50;99.90
33741;DHT22;20065;48.380;10.892;2022-08-01T16:04:42;20.50;99.90
33741;DHT22;20065;48.380;10.892;2022-08-01T16:07:28;20.60;99.90
33741;DHT22;20065;48.380;10.892;2022-08-01T16:10:14;20.70;99.90
33741;DHT22;20065;48.380;10.892;2022-08-01T16:13:00;20.90;99.90
33741;DHT22;20065;48.380;10.892;2022-08-01T16:15:46;20.90;99.90
33741;DHT22;20065;48.380;10.892;2022-08-01T16:18:32;21.00;99.90
33741;DHT22;20065;48.380;10.892;2022-08-01T16:21:18;21.10;99.90
33741;DHT22;20065;48.380;10.892;2022-08-01T16:24:04;21.20;99.90
33741;DHT22;20065;48.380;10.892;2022-08-01T16:26:50;21.30;99.90
33741;DHT22;20065;48.380;10.892;2022-08-01T16:29:37;21.40;99.90
33741;DHT22;20065;48.380;10.892;2022-08-01T16:32:23;21.60;99.90
33741;DHT22;20065;48.380;10.892;2022-08-01T16:35:09;21.70;99.90
33741;DHT22;20065;48.380;10.892;2022-08-01T16:37:55;21.90;99.90
33741;DHT22;20065;48.380;10.892;2022-08-01T16:40:40;21.90;99.90
33741;DHT22;20065;48.380;10.892;2022-08-01T16:43:28;21.80;99.90
33741;DHT22;20065;48.380;10.892;2022-08-01T16:46:14;21.60;99.90
33741;DHT22;20065;48.380;10.892;2022-08-01T16:49:00;21.40;99.90
33741;DHT22;20065;48.380;10.892;2022-08-01T16:51:47;21.20;99.90
33741;DHT22;20065;48.380;10.892;2022-08-01T16:54:33;21.10;99.90
33741;DHT22;20065;48.380;10.892;2022-08-01T16:57:20;21.00;99.90
33741;DHT22;20065;48.380;10.892;2022-08-01T17:00:09;21.70;99.90
33741;DHT22;20065;48.380;10.892;2022-08-01T17:02:55;20.90;99.90
33741;DHT22;20065;48.380;10.892;2022-08-01T17:05:41;20.80;99.90
33741;DHT22;20065;48.380;10.892;2022-08-01T17:08:27;20.80;99.90
33741;DHT22;20065;48.380;10.892;2022-08-01T17:11:14;20.80;99.90
33741;DHT22;20065;48.380;10.892;2022-08-01T17:14:01;20.80;99.90
33741;DHT22;20065;48.380;10.892;2022-08-01T17:16:47;20.80;99.90
33741;DHT22;20065;48.380;10.892;2022-08-01T17:19:33;20.80;99.90
33741;DHT22;20065;48.380;10.892;2022-08-01T17:22:19;20.70;99.90
33741;DHT22;20065;48.380;10.892;2022-08-01T17:25:05;21.20;99.90
33741;DHT22;20065;48.380;10.892;2022-08-01T17:28:12;20.60;99.90
33741;DHT22;20065;48.380;10.892;2022-08-01T17:30:58;20.60;99.90
33741;DHT22;20065;48.380;10.892;2022-08-01T17:33:44;20.60;99.90
33741;DHT22;20065;48.380;10.892;2022-08-01T17:36:30;20.70;99.90
33741;DHT22;20065;48.380;10.892;2022-08-01T17:39:16;20.70;99.90
33741;DHT22;20065;48.380;10.892;2022-08-01T17:42:02;21.00;99.90
33741;DHT22;20065;48.380;10.892;2022-08-01T17:44:48;20.70;99.90
33741;DHT22;20065;48.380;10.892;2022-08-01T17:47:35;20.70;99.90